sensor_id;sensor_type;location;lat;lon;timestamp;P1;durP1;ratioP1;P2;durP2;ratioP2
20906;SDS011;10613;50.966;5.814;2023-07-24T00:02:50;5.00;;;5.00;;
20906;SDS011;10613;50.966;5.814;2023-07-24T00:06:57;8.75;;;6.00;;
20906;SDS011;10613;50.966;5.814;2023-07-24T00:11:06;6.25;;;5.50;;
20906;SDS011;10613;50.966;5.814;2023-07-24T00:15:13;6.00;;;6.00;;
20906;SDS011;10613;50.966;5.814;2023-07-24T00:19:20;7.00;;;6.00;;
20906;SDS011;10613;50.966;5.814;2023-07-24T00:23:27;3.00;;;3.00;;
20906;SDS011;10613;50.966;5.814;2023-07-24T00:27:34;4.75;;;4.75;;
20906;SDS011;10613;50.966;5.814;2023-07-24T00:31:41;3.50;;;3.50;;
20906;SDS011;10613;50.966;5.814;2023-07-24T00:35:48;7.00;;;4.50;;
20906;SDS011;10613;50.966;5.814;2023-07-24T00:39:55;5.25;;;5.25;;
20906;SDS011;10613;50.966;5.814;2023-07-24T00:44:02;6.50;;;5.25;;
20906;SDS011;10613;50.966;5.814;2023-07-24T00:48:09;4.75;;;4.75;;
20906;SDS011;10613;50.966;5.814;2023-07-24T00:52:16;5.00;;;3.00;;
20906;SDS011;10613;50.966;5.814;2023-07-24T00:56:25;8.00;;;7.00;;
20906;SDS011;10613;50.966;5.814;2023-07-24T01:00:32;5.25;;;4.50;;
20906;SDS011;10613;50.966;5.814;2023-07-24T01:04:39;3.00;;;3.00;;
20906;SDS011;10613;50.966;5.814;2023-07-24T01:08:47;6.75;;;4.00;;
20906;SDS011;10613;50.966;5.814;2023-07-24T01:17:20;4.25;;;4.25;;
20906;SDS011;10613;50.966;5.814;2023-07-24T01:21:33;3.00;;;3.00;;
20906;SDS011;10613;50.966;5.814;2023-07-24T01:25:51;3.75;;;3.75;;
20906;SDS011;10613;50.966;5.814;2023-07-24T01:30:00;5.00;;;5.00;;
20906;SDS011;10613;50.966;5.814;2023-07-24T01:34:07;5.00;;;5.00;;
20906;SDS011;10613;50.966;5.814;2023-07-24T01:38:14;3.00;;;3.00;;
20906;SDS011;10613;50.966;5.814;2023-07-24T01:42:21;5.00;;;5.00;;
20906;SDS011;10613;50.966;5.814;2023-07-24T01:46:28;6.00;;;5.00;;
20906;SDS011;10613;50.966;5.814;2023-07-24T01:50:35;5.00;;;5.00;;
20906;SDS011;10613;50.966;5.814;2023-07-24T01:54:42;3.50;;;3.50;;
20906;SDS011;10613;50.966;5.814;2023-07-24T01:58:49;10.00;;;6.25;;
20906;SDS011;10613;50.966;5.814;2023-07-24T02:02:56;6.00;;;6.00;;
20906;SDS011;10613;50.966;5.814;2023-07-24T02:07:03;6.25;;;5.75;;
20906;SDS011;10613;50.966;5.814;2023-07-24T02:11:10;7.25;;;6.00;;
20906;SDS011;10613;50.966;5.814;2023-07-24T02:15:17;6.25;;;5.75;;
20906;SDS011;10613;50.966;5.814;2023-07-24T02:19:24;6.50;;;5.75;;
20906;SDS011;10613;50.966;5.814;2023-07-24T02:23:31;4.25;;;4.25;;
20906;SDS011;10613;50.966;5.814;2023-07-24T02:27:38;5.50;;;5.50;;
20906;SDS011;10613;50.966;5.814;2023-07-24T02:31:45;5.25;;;5.25;;
20906;SDS011;10613;50.966;5.814;2023-07-24T02:35:52;4.75;;;4.75;;
20906;SDS011;10613;50.966;5.814;2023-07-24T02:39:59;7.00;;;5.00;;
20906;SDS011;10613;50.966;5.814;2023-07-24T02:44:06;5.00;;;5.00;;
20906;SDS011;10613;50.966;5.814;2023-07-24T02:48:14;5.50;;;5.25;;
20906;SDS011;10613;50.966;5.814;2023-07-24T02:52:22;5.75;;;3.75;;
20906;SDS011;10613;50.966;5.814;2023-07-24T02:56:29;5.50;;;3.00;;
20906;SDS011;10613;50.966;5.814;2023-07-24T03:05:07;6.00;;;6.00;;
20906;SDS011;10613;50.966;5.814;2023-07-24T03:14:13;6.00;;;6.00;;
20906;SDS011;10613;50.966;5.814;2023-07-24T03:18:20;5.00;;;5.00;;
20906;SDS011;10613;50.966;5.814;2023-07-24T03:22:34;7.75;;;6.25;;
20906;SDS011;10613;50.966;5.814;2023-07-24T03:26:41;5.50;;;5.50;;
20906;SDS011;10613;50.966;5.814;2023-07-24T03:30:48;6.00;;;6.00;;
20906;SDS011;10613;50.966;5.814;2023-07-24T03:34:56;6.00;;;5.50;;
20906;SDS011;10613;50.966;5.814;2023-07-24T03:39:08;6.00;;;6.00;;
20906;SDS011;10613;50.966;5.814;2023-07-24T03:43:18;6.50;;;6.50;;
20906;SDS011;10613;50.966;5.814;2023-07-24T03:47:35;6.25;;;6.25;;
20906;SDS011;10613;50.966;5.814;2023-07-24T03:51:42;5.00;;;4.50;;
20906;SDS011;10613;50.966;5.814;2023-07-24T03:55:49;6.25;;;3.00;;
20906;SDS011;10613;50.966;5.814;2023-07-24T03:59:56;6.25;;;5.75;;
20906;SDS011;10613;50.966;5.814;2023-07-24T04:04:12;6.50;;;6.00;;
20906;SDS011;10613;50.966;5.814;2023-07-24T04:08:19;5.75;;;5.00;;
20906;SDS011;10613;50.966;5.814;2023-07-24T04:12:26;6.00;;;5.00;;
20906;SDS011;10613;50.966;5.814;2023-07-24T04:16:33;3.00;;;3.00;;
20906;SDS011;10613;50.966;5.814;2023-07-24T04:20:40;6.25;;;6.25;;
20906;SDS011;10613;50.966;5.814;2023-07-24T04:24:47;5.00;;;5.00;;
20906;SDS011;10613;50.966;5.814;2023-07-24T04:28:54;6.00;;;6.00;;
20906;SDS011;10613;50.966;5.814;2023-07-24T04:33:01;6.25;;;5.25;;
20906;SDS011;10613;50.966;5.814;2023-07-24T04:37:08;5.00;;;5.00;;
20906;SDS011;10613;50.966;5.814;2023-07-24T04:41:15;7.25;;;7.00;;
20906;SDS011;10613;50.966;5.814;2023-07-24T04:45:22;5.25;;;5.25;;
20906;SDS011;10613;50.966;5.814;2023-07-24T04:49:29;6.50;;;4.50;;
20906;SDS011;10613;50.966;5.814;2023-07-24T04:53:36;5.00;;;5.00;;
20906;SDS011;10613;50.966;5.814;2023-07-24T04:57:43;6.50;;;3.00;;
20906;SDS011;10613;50.966;5.814;2023-07-24T05:01:50;7.25;;;5.75;;
20906;SDS011;10613;50.966;5.814;2023-07-24T05:06:00;3.50;;;3.50;;
20906;SDS011;10613;50.966;5.814;2023-07-24T05:10:06;5.50;;;5.25;;
20906;SDS011;10613;50.966;5.814;2023-07-24T05:14:13;6.25;;;5.25;;
20906;SDS011;10613;50.966;5.814;2023-07-24T05:18:20;6.00;;;5.25;;
20906;SDS011;10613;50.966;5.814;2023-07-24T05:22:27;6.00;;;6.00;;
20906;SDS011;10613;50.966;5.814;2023-07-24T05:26:34;7.00;;;6.00;;
20906;SDS011;10613;50.966;5.814;2023-07-24T05:30:41;4.75;;;4.75;;
20906;SDS011;10613;50.966;5.814;2023-07-24T05:34:48;5.25;;;5.25;;
20906;SDS011;10613;50.966;5.814;2023-07-24T05:38:55;4.50;;;4.50;;
20906;SDS011;10613;50.966;5.814;2023-07-24T05:43:02;7.25;;;6.75;;
20906;SDS011;10613;50.966;5.814;2023-07-24T05:47:10;5.00;;;5.00;;
20906;SDS011;10613;50.966;5.814;2023-07-24T05:51:17;5.00;;;5.00;;
20906;SDS011;10613;50.966;5.814;2023-07-24T05:55:24;6.00;;;6.00;;
20906;SDS011;10613;50.966;5.814;2023-07-24T05:59:31;4.25;;;4.25;;
20906;SDS011;10613;50.966;5.814;2023-07-24T06:03:38;10.00;;;6.00;;
20906;SDS011;10613;50.966;5.814;2023-07-24T06:07:47;4.75;;;4.75;;
20906;SDS011;10613;50.966;5.814;2023-07-24T06:11:54;5.50;;;5.50;;
20906;SDS011;10613;50.966;5.814;2023-07-24T06:16:01;3.00;;;3.00;;
20906;SDS011;10613;50.966;5.814;2023-07-24T06:20:10;4.50;;;4.00;;
20906;SDS011;10613;50.966;5.814;2023-07-24T06:24:17;5.50;;;4.50;;
20906;SDS011;10613;50.966;5.814;2023-07-24T06:28:24;6.00;;;6.00;;
20906;SDS011;10613;50.966;5.814;2023-07-24T06:32:31;6.00;;;5.00;;
20906;SDS011;10613;50.966;5.814;2023-07-24T06:36:38;6.75;;;6.00;;
20906;SDS011;10613;50.966;5.814;2023-07-24T06:40:45;6.50;;;6.50;;
20906;SDS011;10613;50.966;5.814;2023-07-24T06:44:52;3.00;;;3.00;;
20906;SDS011;10613;50.966;5.814;2023-07-24T06:48:59;5.00;;;5.00;;
20906;SDS011;10613;50.966;5.814;2023-07-24T06:53:08;5.00;;;5.00;;
20906;SDS011;10613;50.966;5.814;2023-07-24T06:57:15;4.75;;;4.75;;
20906;SDS011;10613;50.966;5.814;2023-07-24T07:01:22;8.50;;;7.50;;
20906;SDS011;10613;50.966;5.814;2023-07-24T07:05:31;6.25;;;6.25;;
20906;SDS011;10613;50.966;5.814;2023-07-24T07:09:38;5.75;;;5.75;;
20906;SDS011;10613;50.966;5.814;2023-07-24T07:13:45;6.00;;;5.25;;
20906;SDS011;10613;50.966;5.814;2023-07-24T07:17:52;5.50;;;5.00;;
20906;SDS011;10613;50.966;5.814;2023-07-24T07:21:59;3.00;;;3.00;;
20906;SDS011;10613;50.966;5.814;2023-07-24T07:26:06;5.50;;;5.00;;
20906;SDS011;10613;50.966;5.814;2023-07-24T07:30:13;3.00;;;3.00;;
20906;SDS011;10613;50.966;5.814;2023-07-24T07:34:20;4.00;;;4.00;;
20906;SDS011;10613;50.966;5.814;2023-07-24T07:38:27;6.25;;;5.75;;
20906;SDS011;10613;50.966;5.814;2023-07-24T07:42:34;5.00;;;5.00;;
20906;SDS011;10613;50.966;5.814;2023-07-24T07:46:41;5.00;;;5.00;;
20906;SDS011;10613;50.966;5.814;2023-07-24T07:50:51;7.00;;;6.25;;
20906;SDS011;10613;50.966;5.814;2023-07-24T07:54:58;6.25;;;6.00;;
20906;SDS011;10613;50.966;5.814;2023-07-24T07:59:05;6.50;;;6.50;;
20906;SDS011;10613;50.966;5.814;2023-07-24T08:03:12;6.25;;;5.50;;
20906;SDS011;10613;50.966;5.814;2023-07-24T08:07:19;6.00;;;6.00;;
20906;SDS011;10613;50.966;5.814;2023-07-24T08:11:26;6.00;;;6.00;;
20906;SDS011;10613;50.966;5.814;2023-07-24T08:15:34;6.00;;;6.00;;
20906;SDS011;10613;50.966;5.814;2023-07-24T08:19:40;4.50;;;3.50;;
20906;SDS011;10613;50.966;5.814;2023-07-24T08:23:47;3.00;;;3.00;;
20906;SDS011;10613;50.966;5.814;2023-07-24T08:27:54;5.00;;;5.00;;
20906;SDS011;10613;50.966;5.814;2023-07-24T08:32:01;6.00;;;5.00;;
20906;SDS011;10613;50.966;5.814;2023-07-24T08:36:08;7.25;;;7.00;;
20906;SDS011;10613;50.966;5.814;2023-07-24T08:40:15;5.00;;;5.00;;
20906;SDS011;10613;50.966;5.814;2023-07-24T08:44:22;6.50;;;6.00;;
20906;SDS011;10613;50.966;5.814;2023-07-24T08:48:32;6.00;;;6.00;;
20906;SDS011;10613;50.966;5.814;2023-07-24T08:52:42;6.75;;;6.75;;
20906;SDS011;10613;50.966;5.814;2023-07-24T08:56:52;6.00;;;6.00;;
20906;SDS011;10613;50.966;5.814;2023-07-24T09:00:59;5.00;;;5.00;;
20906;SDS011;10613;50.966;5.814;2023-07-24T09:05:06;4.25;;;4.25;;
20906;SDS011;10613;50.966;5.814;2023-07-24T09:09:14;3.75;;;3.75;;
20906;SDS011;10613;50.966;5.814;2023-07-24T09:13:28;6.00;;;6.00;;
20906;SDS011;10613;50.966;5.814;2023-07-24T09:17:35;6.25;;;4.00;;
20906;SDS011;10613;50.966;5.814;2023-07-24T09:21:42;6.50;;;6.00;;
20906;SDS011;10613;50.966;5.814;2023-07-24T09:25:50;4.00;;;4.00;;
20906;SDS011;10613;50.966;5.814;2023-07-24T09:29:57;4.75;;;4.75;;
20906;SDS011;10613;50.966;5.814;2023-07-24T09:34:13;3.00;;;3.00;;
20906;SDS011;10613;50.966;5.814;2023-07-24T09:38:19;3.75;;;3.75;;
20906;SDS011;10613;50.966;5.814;2023-07-24T09:42:35;3.50;;;3.00;;
20906;SDS011;10613;50.966;5.814;2023-07-24T09:46:43;3.00;;;3.00;;
20906;SDS011;10613;50.966;5.814;2023-07-24T09:50:52;5.50;;;3.75;;
20906;SDS011;10613;50.966;5.814;2023-07-24T09:55:14;5.50;;;3.75;;
20906;SDS011;10613;50.966;5.814;2023-07-24T09:59:21;3.50;;;3.50;;
20906;SDS011;10613;50.966;5.814;2023-07-24T10:03:29;4.00;;;4.00;;
20906;SDS011;10613;50.966;5.814;2023-07-24T10:07:36;4.00;;;3.00;;
20906;SDS011;10613;50.966;5.814;2023-07-24T10:11:43;3.25;;;3.25;;
20906;SDS011;10613;50.966;5.814;2023-07-24T10:15:50;4.00;;;4.00;;
20906;SDS011;10613;50.966;5.814;2023-07-24T10:20:01;3.00;;;2.25;;
20906;SDS011;10613;50.966;5.814;2023-07-24T10:24:09;4.00;;;4.00;;
20906;SDS011;10613;50.966;5.814;2023-07-24T10:28:16;3.00;;;3.00;;
20906;SDS011;10613;50.966;5.814;2023-07-24T10:32:24;3.00;;;3.00;;
20906;SDS011;10613;50.966;5.814;2023-07-24T10:36:35;3.00;;;3.00;;
20906;SDS011;10613;50.966;5.814;2023-07-24T10:40:44;5.00;;;4.00;;
20906;SDS011;10613;50.966;5.814;2023-07-24T10:45:01;7.00;;;6.00;;
20906;SDS011;10613;50.966;5.814;2023-07-24T10:49:08;7.75;;;7.75;;
20906;SDS011;10613;50.966;5.814;2023-07-24T10:53:16;3.50;;;3.50;;
20906;SDS011;10613;50.966;5.814;2023-07-24T10:57:26;3.50;;;3.50;;
20906;SDS011;10613;50.966;5.814;2023-07-24T11:01:33;3.75;;;3.75;;
20906;SDS011;10613;50.966;5.814;2023-07-24T11:05:44;4.75;;;2.25;;
20906;SDS011;10613;50.966;5.814;2023-07-24T11:09:52;2.00;;;2.00;;
20906;SDS011;10613;50.966;5.814;2023-07-24T11:14:00;2.00;;;2.00;;
20906;SDS011;10613;50.966;5.814;2023-07-24T11:18:07;2.00;;;2.00;;
20906;SDS011;10613;50.966;5.814;2023-07-24T11:22:14;2.00;;;2.00;;
20906;SDS011;10613;50.966;5.814;2023-07-24T11:26:22;2.50;;;2.00;;
20906;SDS011;10613;50.966;5.814;2023-07-24T11:30:30;2.00;;;2.00;;
20906;SDS011;10613;50.966;5.814;2023-07-24T11:34:37;1.50;;;1.50;;
20906;SDS011;10613;50.966;5.814;2023-07-24T11:38:47;1.50;;;1.50;;
20906;SDS011;10613;50.966;5.814;2023-07-24T11:42:55;2.00;;;2.00;;
20906;SDS011;10613;50.966;5.814;2023-07-24T11:47:05;1.25;;;1.25;;
20906;SDS011;10613;50.966;5.814;2023-07-24T11:51:12;2.00;;;2.00;;
20906;SDS011;10613;50.966;5.814;2023-07-24T11:55:19;2.00;;;2.00;;
20906;SDS011;10613;50.966;5.814;2023-07-24T11:59:27;2.00;;;2.00;;
20906;SDS011;10613;50.966;5.814;2023-07-24T12:03:34;2.00;;;2.00;;
20906;SDS011;10613;50.966;5.814;2023-07-24T12:07:42;2.50;;;1.25;;
20906;SDS011;10613;50.966;5.814;2023-07-24T12:11:50;1.75;;;1.75;;
20906;SDS011;10613;50.966;5.814;2023-07-24T12:15:57;2.00;;;2.00;;
20906;SDS011;10613;50.966;5.814;2023-07-24T12:20:04;1.25;;;1.25;;
20906;SDS011;10613;50.966;5.814;2023-07-24T12:24:13;2.25;;;2.25;;
20906;SDS011;10613;50.966;5.814;2023-07-24T12:28:20;1.00;;;1.00;;
20906;SDS011;10613;50.966;5.814;2023-07-24T12:32:27;2.00;;;2.00;;
20906;SDS011;10613;50.966;5.814;2023-07-24T12:36:34;2.25;;;2.00;;
20906;SDS011;10613;50.966;5.814;2023-07-24T12:40:41;3.00;;;1.75;;
20906;SDS011;10613;50.966;5.814;2023-07-24T12:44:48;3.25;;;3.00;;
20906;SDS011;10613;50.966;5.814;2023-07-24T12:48:55;2.00;;;2.00;;
20906;SDS011;10613;50.966;5.814;2023-07-24T12:53:02;3.25;;;2.00;;
20906;SDS011;10613;50.966;5.814;2023-07-24T12:57:09;4.50;;;4.50;;
20906;SDS011;10613;50.966;5.814;2023-07-24T13:01:16;2.00;;;2.00;;
20906;SDS011;10613;50.966;5.814;2023-07-24T13:05:23;2.00;;;2.00;;
20906;SDS011;10613;50.966;5.814;2023-07-24T13:09:30;3.00;;;3.00;;
20906;SDS011;10613;50.966;5.814;2023-07-24T13:13:37;3.75;;;3.00;;
20906;SDS011;10613;50.966;5.814;2023-07-24T13:17:44;3.00;;;3.00;;
20906;SDS011;10613;50.966;5.814;2023-07-24T13:21:51;3.00;;;3.00;;
20906;SDS011;10613;50.966;5.814;2023-07-24T13:25:58;4.00;;;3.00;;
20906;SDS011;10613;50.966;5.814;2023-07-24T13:30:05;2.50;;;2.50;;
20906;SDS011;10613;50.966;5.814;2023-07-24T13:34:12;5.50;;;3.00;;
20906;SDS011;10613;50.966;5.814;2023-07-24T13:38:19;3.00;;;3.00;;
20906;SDS011;10613;50.966;5.814;2023-07-24T13:42:26;4.00;;;3.00;;
20906;SDS011;10613;50.966;5.814;2023-07-24T13:46:33;3.00;;;3.00;;
20906;SDS011;10613;50.966;5.814;2023-07-24T13:50:40;3.25;;;2.75;;
20906;SDS011;10613;50.966;5.814;2023-07-24T13:54:47;5.00;;;5.00;;
20906;SDS011;10613;50.966;5.814;2023-07-24T13:58:54;4.00;;;4.00;;
20906;SDS011;10613;50.966;5.814;2023-07-24T14:03:01;3.25;;;3.00;;
20906;SDS011;10613;50.966;5.814;2023-07-24T14:07:08;3.75;;;3.00;;
20906;SDS011;10613;50.966;5.814;2023-07-24T14:11:16;3.75;;;3.25;;
20906;SDS011;10613;50.966;5.814;2023-07-24T14:15:23;4.00;;;4.00;;
20906;SDS011;10613;50.966;5.814;2023-07-24T14:19:30;3.00;;;3.00;;
20906;SDS011;10613;50.966;5.814;2023-07-24T14:23:37;3.75;;;3.75;;
20906;SDS011;10613;50.966;5.814;2023-07-24T14:27:44;7.00;;;4.00;;
20906;SDS011;10613;50.966;5.814;2023-07-24T14:31:51;4.00;;;4.00;;
20906;SDS011;10613;50.966;5.814;2023-07-24T14:35:58;6.00;;;6.00;;
20906;SDS011;10613;50.966;5.814;2023-07-24T14:40:05;3.50;;;3.50;;
20906;SDS011;10613;50.966;5.814;2023-07-24T14:44:12;4.00;;;3.00;;
20906;SDS011;10613;50.966;5.814;2023-07-24T14:48:19;5.00;;;4.00;;
20906;SDS011;10613;50.966;5.814;2023-07-24T14:52:33;6.00;;;4.00;;
20906;SDS011;10613;50.966;5.814;2023-07-24T14:56:40;3.75;;;3.75;;
20906;SDS011;10613;50.966;5.814;2023-07-24T15:00:47;10.00;;;8.25;;
20906;SDS011;10613;50.966;5.814;2023-07-24T15:04:54;4.75;;;4.75;;
20906;SDS011;10613;50.966;5.814;2023-07-24T15:09:01;4.50;;;4.50;;
20906;SDS011;10613;50.966;5.814;2023-07-24T15:13:09;5.00;;;5.00;;
20906;SDS011;10613;50.966;5.814;2023-07-24T15:17:16;8.50;;;8.50;;
20906;SDS011;10613;50.966;5.814;2023-07-24T15:21:25;7.00;;;7.00;;
20906;SDS011;10613;50.966;5.814;2023-07-24T15:25:32;6.25;;;6.25;;
20906;SDS011;10613;50.966;5.814;2023-07-24T15:29:39;7.00;;;7.00;;
20906;SDS011;10613;50.966;5.814;2023-07-24T15:33:46;6.00;;;6.00;;
20906;SDS011;10613;50.966;5.814;2023-07-24T15:37:53;5.00;;;5.00;;
20906;SDS011;10613;50.966;5.814;2023-07-24T15:42:00;6.50;;;6.50;;
20906;SDS011;10613;50.966;5.814;2023-07-24T15:46:14;10.00;;;9.00;;
20906;SDS011;10613;50.966;5.814;2023-07-24T15:50:21;7.00;;;6.50;;
20906;SDS011;10613;50.966;5.814;2023-07-24T15:54:28;6.00;;;4.50;;
20906;SDS011;10613;50.966;5.814;2023-07-24T15:58:35;7.00;;;5.75;;
20906;SDS011;10613;50.966;5.814;2023-07-24T16:02:44;5.50;;;5.00;;
20906;SDS011;10613;50.966;5.814;2023-07-24T16:06:51;9.75;;;8.00;;
20906;SDS011;10613;50.966;5.814;2023-07-24T16:10:58;6.75;;;4.50;;
20906;SDS011;10613;50.966;5.814;2023-07-24T16:15:06;4.00;;;4.00;;
20906;SDS011;10613;50.966;5.814;2023-07-24T16:19:17;5.00;;;5.00;;
20906;SDS011;10613;50.966;5.814;2023-07-24T16:23:24;5.75;;;5.75;;
20906;SDS011;10613;50.966;5.814;2023-07-24T16:27:31;6.00;;;6.00;;
20906;SDS011;10613;50.966;5.814;2023-07-24T16:31:38;5.00;;;5.00;;
20906;SDS011;10613;50.966;5.814;2023-07-24T16:35:45;8.00;;;8.00;;
20906;SDS011;10613;50.966;5.814;2023-07-24T16:39:52;6.75;;;6.00;;
20906;SDS011;10613;50.966;5.814;2023-07-24T16:43:59;8.75;;;7.75;;
20906;SDS011;10613;50.966;5.814;2023-07-24T16:48:06;3.75;;;3.75;;
20906;SDS011;10613;50.966;5.814;2023-07-24T16:52:13;6.75;;;6.00;;
20906;SDS011;10613;50.966;5.814;2023-07-24T16:56:20;9.00;;;9.00;;
20906;SDS011;10613;50.966;5.814;2023-07-24T17:00:27;8.75;;;8.75;;
20906;SDS011;10613;50.966;5.814;2023-07-24T17:04:37;5.00;;;5.00;;
20906;SDS011;10613;50.966;5.814;2023-07-24T17:08:45;5.50;;;5.50;;
20906;SDS011;10613;50.966;5.814;2023-07-24T17:12:53;3.75;;;3.75;;
20906;SDS011;10613;50.966;5.814;2023-07-24T17:17:00;5.75;;;5.75;;
20906;SDS011;10613;50.966;5.814;2023-07-24T17:21:07;9.75;;;8.50;;
20906;SDS011;10613;50.966;5.814;2023-07-24T17:25:14;7.75;;;7.75;;
20906;SDS011;10613;50.966;5.814;2023-07-24T17:29:21;6.25;;;5.75;;
20906;SDS011;10613;50.966;5.814;2023-07-24T17:33:28;5.25;;;5.25;;
20906;SDS011;10613;50.966;5.814;2023-07-24T17:37:35;6.00;;;6.00;;
20906;SDS011;10613;50.966;5.814;2023-07-24T17:41:42;7.00;;;7.00;;
20906;SDS011;10613;50.966;5.814;2023-07-24T17:45:49;5.75;;;5.75;;
20906;SDS011;10613;50.966;5.814;2023-07-24T17:49:56;5.25;;;5.25;;
20906;SDS011;10613;50.966;5.814;2023-07-24T17:54:03;6.50;;;6.00;;
20906;SDS011;10613;50.966;5.814;2023-07-24T17:58:10;6.00;;;6.00;;
20906;SDS011;10613;50.966;5.814;2023-07-24T18:02:17;7.00;;;7.00;;
20906;SDS011;10613;50.966;5.814;2023-07-24T18:06:24;8.50;;;7.00;;
20906;SDS011;10613;50.966;5.814;2023-07-24T18:10:31;9.50;;;9.50;;
20906;SDS011;10613;50.966;5.814;2023-07-24T18:14:38;7.75;;;7.75;;
20906;SDS011;10613;50.966;5.814;2023-07-24T18:18:45;5.00;;;5.00;;
20906;SDS011;10613;50.966;5.814;2023-07-24T18:22:52;7.00;;;7.00;;
20906;SDS011;10613;50.966;5.814;2023-07-24T18:26:59;7.00;;;6.00;;
20906;SDS011;10613;50.966;5.814;2023-07-24T18:31:06;6.75;;;6.50;;
20906;SDS011;10613;50.966;5.814;2023-07-24T18:35:13;5.25;;;5.25;;
20906;SDS011;10613;50.966;5.814;2023-07-24T18:39:20;6.75;;;6.75;;
20906;SDS011;10613;50.966;5.814;2023-07-24T18:43:27;6.75;;;6.00;;
20906;SDS011;10613;50.966;5.814;2023-07-24T18:47:34;8.00;;;7.50;;
20906;SDS011;10613;50.966;5.814;2023-07-24T18:51:41;7.25;;;7.25;;
20906;SDS011;10613;50.966;5.814;2023-07-24T18:55:48;7.50;;;7.50;;
20906;SDS011;10613;50.966;5.814;2023-07-24T18:59:55;9.75;;;7.75;;
20906;SDS011;10613;50.966;5.814;2023-07-24T19:04:02;9.75;;;8.00;;
20906;SDS011;10613;50.966;5.814;2023-07-24T19:08:09;7.25;;;6.50;;
20906;SDS011;10613;50.966;5.814;2023-07-24T19:12:16;6.25;;;6.25;;
20906;SDS011;10613;50.966;5.814;2023-07-24T19:16:23;6.00;;;6.00;;
20906;SDS011;10613;50.966;5.814;2023-07-24T19:20:30;8.00;;;6.50;;
20906;SDS011;10613;50.966;5.814;2023-07-24T19:24:39;6.75;;;6.75;;
20906;SDS011;10613;50.966;5.814;2023-07-24T19:28:46;9.75;;;8.25;;
20906;SDS011;10613;50.966;5.814;2023-07-24T19:32:53;7.00;;;7.00;;
20906;SDS011;10613;50.966;5.814;2023-07-24T19:37:00;5.75;;;5.00;;
20906;SDS011;10613;50.966;5.814;2023-07-24T19:41:07;7.00;;;7.00;;
20906;SDS011;10613;50.966;5.814;2023-07-24T19:45:14;7.75;;;7.00;;
20906;SDS011;10613;50.966;5.814;2023-07-24T19:49:21;7.50;;;6.25;;
20906;SDS011;10613;50.966;5.814;2023-07-24T19:53:28;6.75;;;6.75;;
20906;SDS011;10613;50.966;5.814;2023-07-24T19:57:35;10.00;;;7.00;;
20906;SDS011;10613;50.966;5.814;2023-07-24T20:01:42;5.00;;;5.00;;
20906;SDS011;10613;50.966;5.814;2023-07-24T20:05:53;6.50;;;6.50;;
20906;SDS011;10613;50.966;5.814;2023-07-24T20:10:00;7.50;;;5.00;;
20906;SDS011;10613;50.966;5.814;2023-07-24T20:14:07;7.75;;;6.25;;
20906;SDS011;10613;50.966;5.814;2023-07-24T20:18:15;6.00;;;6.00;;
20906;SDS011;10613;50.966;5.814;2023-07-24T20:22:23;7.25;;;6.00;;
20906;SDS011;10613;50.966;5.814;2023-07-24T20:26:30;6.75;;;6.75;;
20906;SDS011;10613;50.966;5.814;2023-07-24T20:30:37;8.00;;;8.00;;
20906;SDS011;10613;50.966;5.814;2023-07-24T20:34:44;5.75;;;5.75;;
20906;SDS011;10613;50.966;5.814;2023-07-24T20:38:51;6.50;;;6.50;;
20906;SDS011;10613;50.966;5.814;2023-07-24T20:42:58;7.00;;;7.00;;
20906;SDS011;10613;50.966;5.814;2023-07-24T20:47:12;5.00;;;5.00;;
20906;SDS011;10613;50.966;5.814;2023-07-24T20:51:20;5.00;;;5.00;;
20906;SDS011;10613;50.966;5.814;2023-07-24T20:55:27;7.25;;;7.00;;
20906;SDS011;10613;50.966;5.814;2023-07-24T20:59:34;7.25;;;7.25;;
20906;SDS011;10613;50.966;5.814;2023-07-24T21:03:41;8.00;;;7.00;;
20906;SDS011;10613;50.966;5.814;2023-07-24T21:07:48;6.50;;;6.50;;
20906;SDS011;10613;50.966;5.814;2023-07-24T21:11:55;5.75;;;5.75;;
20906;SDS011;10613;50.966;5.814;2023-07-24T21:16:02;7.00;;;7.00;;
20906;SDS011;10613;50.966;5.814;2023-07-24T21:20:09;3.00;;;3.00;;
20906;SDS011;10613;50.966;5.814;2023-07-24T21:24:16;5.75;;;5.75;;
20906;SDS011;10613;50.966;5.814;2023-07-24T21:28:23;5.00;;;5.00;;
20906;SDS011;10613;50.966;5.814;2023-07-24T21:32:30;4.50;;;4.50;;
20906;SDS011;10613;50.966;5.814;2023-07-24T21:36:37;4.00;;;4.00;;
20906;SDS011;10613;50.966;5.814;2023-07-24T21:40:51;4.50;;;4.50;;
20906;SDS011;10613;50.966;5.814;2023-07-24T21:44:58;6.00;;;5.50;;
20906;SDS011;10613;50.966;5.814;2023-07-24T21:49:19;3.00;;;3.00;;
20906;SDS011;10613;50.966;5.814;2023-07-24T21:53:26;6.25;;;5.25;;
20906;SDS011;10613;50.966;5.814;2023-07-24T21:57:40;5.00;;;5.00;;
20906;SDS011;10613;50.966;5.814;2023-07-24T22:01:47;5.75;;;5.00;;
20906;SDS011;10613;50.966;5.814;2023-07-24T22:05:54;5.00;;;5.00;;
20906;SDS011;10613;50.966;5.814;2023-07-24T22:10:01;5.00;;;5.00;;
20906;SDS011;10613;50.966;5.814;2023-07-24T22:14:08;5.50;;;5.50;;
20906;SDS011;10613;50.966;5.814;2023-07-24T22:18:15;6.25;;;6.00;;
20906;SDS011;10613;50.966;5.814;2023-07-24T22:22:22;5.00;;;5.00;;
20906;SDS011;10613;50.966;5.814;2023-07-24T22:26:29;6.00;;;5.25;;
20906;SDS011;10613;50.966;5.814;2023-07-24T22:30:36;5.50;;;5.50;;
20906;SDS011;10613;50.966;5.814;2023-07-24T22:34:47;5.00;;;5.00;;
20906;SDS011;10613;50.966;5.814;2023-07-24T22:38:54;7.00;;;6.75;;
20906;SDS011;10613;50.966;5.814;2023-07-24T22:43:01;3.00;;;3.00;;
20906;SDS011;10613;50.966;5.814;2023-07-24T22:47:08;2.75;;;2.75;;
20906;SDS011;10613;50.966;5.814;2023-07-24T22:51:15;5.00;;;3.00;;
20906;SDS011;10613;50.966;5.814;2023-07-24T22:55:23;5.00;;;3.00;;
20906;SDS011;10613;50.966;5.814;2023-07-24T22:59:30;3.50;;;3.50;;
20906;SDS011;10613;50.966;5.814;2023-07-24T23:03:37;3.50;;;2.75;;
20906;SDS011;10613;50.966;5.814;2023-07-24T23:07:44;5.25;;;5.25;;
20906;SDS011;10613;50.966;5.814;2023-07-24T23:11:51;3.00;;;3.00;;
20906;SDS011;10613;50.966;5.814;2023-07-24T23:15:59;6.00;;;5.00;;
20906;SDS011;10613;50.966;5.814;2023-07-24T23:20:07;5.25;;;5.25;;
20906;SDS011;10613;50.966;5.814;2023-07-24T23:24:14;3.00;;;2.00;;
20906;SDS011;10613;50.966;5.814;2023-07-24T23:28:21;2.75;;;2.75;;
20906;SDS011;10613;50.966;5.814;2023-07-24T23:32:29;4.50;;;4.50;;
20906;SDS011;10613;50.966;5.814;2023-07-24T23:36:36;2.00;;;2.00;;
20906;SDS011;10613;50.966;5.814;2023-07-24T23:40:43;2.00;;;2.00;;
20906;SDS011;10613;50.966;5.814;2023-07-24T23:44:50;2.00;;;2.00;;
20906;SDS011;10613;50.966;5.814;2023-07-24T23:48:57;3.00;;;3.00;;
20906;SDS011;10613;50.966;5.814;2023-07-24T23:53:04;3.00;;;3.00;;
20906;SDS011;10613;50.966;5.814;2023-07-24T23:57:11;2.75;;;2.75;;
